Pagrindinis puslapis
METAR-TAF:

METAR-TAF

Oro uostai :

Sleetmute, Aliaska, Jungtinės Amerikos Valstijos

platuma: 61-43N, ilguma: 157-09W, Aukštis: 54 m

Dabartinis oras

Ataskaita buvo paskelbta 12 valandos ir 2 minutes, ne 22:56 UTC
Vėjas 11 kt iš Šiaurės su gūsio iki 24 kt, svyruoja nuo Šiaurės/Šiaurės Vakarų ir Šiaurės Rytų
Temperatūra -7°C
Drėgmė 34%
Slėgis 1007 hPa
Matomumas: 16.1 km
Giedras dangus

METAR: PASL 252256Z AUTO 01011G24KT 330V040 10SM CLR M07/M20 A2975 RMK AO2 PK WND 05027/2211 SLP069 T10721200 FZRANO

Laikas: 01:58 (10:58 UTC)


TAF: trūkstamas

Orai ataskaitas ir orų prognozės (METAR, TAF).

turimą stotys yra geltonos ir raudonos taškus žemėlapyje.

Perkelti pele per norėdami pamatyti stoties vardą.

Tada spustelėkite, norėdami matyti oro stebėjimo ir prognozės.

Norėdami pakeisti žemėlapį: spustelėkite ant žalios mygtukų su juodo kryžiaus žemyn,; žalią mygtuką su brūkšneliu, jei norite nutolinti; arba žalių rodyklių gretimoms žemėlapius.


METAR-TAF: